createdAt,value
2023-03-29T00:00:14.275Z,94736.88
2023-03-29T00:02:48.608Z,94727.59
2023-03-29T00:05:19.626Z,94728.09
2023-03-29T00:07:48.107Z,94723.53
2023-03-29T00:10:16.585Z,94731.16
2023-03-29T00:12:45.019Z,94736.22
2023-03-29T00:15:13.752Z,94735.91
2023-03-29T00:17:49.518Z,94732.28
2023-03-29T00:20:18.953Z,94740.66
2023-03-29T00:22:47.746Z,94732.63
2023-03-29T00:25:16.454Z,94721.88
2023-03-29T00:27:58.876Z,94721.34
2023-03-29T00:30:27.361Z,94732.00
2023-03-29T00:32:57.421Z,94734.91
2023-03-29T00:35:26.163Z,94729.44
2023-03-29T00:37:54.585Z,94744.94
2023-03-29T00:40:23.032Z,94733.06
2023-03-29T00:42:51.576Z,94728.84
2023-03-29T00:45:25.236Z,94733.53
2023-03-29T00:47:58.520Z,94729.19
2023-03-29T00:50:33.941Z,94722.00
2023-03-29T00:53:07.428Z,94734.16
2023-03-29T00:55:40.045Z,94735.03
2023-03-29T00:58:56.172Z,94733.25
2023-03-29T01:01:34.145Z,94741.53
2023-03-29T01:04:17.998Z,94738.69
2023-03-29T01:06:56.962Z,94736.44
2023-03-29T01:09:30.402Z,94742.50
2023-03-29T01:12:03.778Z,94738.75
2023-03-29T01:14:37.889Z,94741.59
2023-03-29T01:17:07.505Z,94744.91
2023-03-29T01:19:46.251Z,94743.19
2023-03-29T01:22:29.916Z,94745.06
2023-03-29T01:25:15.957Z,94750.78
2023-03-29T01:28:00.753Z,94745.09
2023-03-29T01:30:35.318Z,94753.75
2023-03-29T01:33:11.541Z,94752.66
2023-03-29T01:35:45.393Z,94740.44
2023-03-29T01:38:21.320Z,94735.19
2023-03-29T01:40:49.776Z,94749.44
2023-03-29T01:43:29.069Z,94748.75
2023-03-29T01:46:05.922Z,94750.84
2023-03-29T01:48:48.009Z,94753.69
2023-03-29T01:51:22.021Z,94742.75
2023-03-29T01:53:58.758Z,94745.09
2023-03-29T01:56:32.203Z,94749.53
2023-03-29T01:59:07.709Z,94761.16
2023-03-29T02:01:49.283Z,94749.53
2023-03-29T02:04:25.528Z,94753.03
2023-03-29T02:06:56.823Z,94744.75
2023-03-29T02:09:25.443Z,94758.75
2023-03-29T02:11:57.348Z,94757.41
2023-03-29T02:14:29.491Z,94752.34
2023-03-29T02:16:58.372Z,94765.50
2023-03-29T02:19:28.065Z,94753.25
2023-03-29T02:22:04.749Z,94741.50
2023-03-29T02:24:36.837Z,94751.69
2023-03-29T02:27:06.212Z,94748.34
2023-03-29T02:29:36.176Z,94752.59
2023-03-29T02:32:14.059Z,94768.34
2023-03-29T02:34:51.390Z,94763.19
2023-03-29T02:37:22.981Z,94769.50
2023-03-29T02:39:54.938Z,94778.16
2023-03-29T02:42:25.604Z,94787.22
2023-03-29T02:45:00.579Z,94793.88
2023-03-29T02:47:34.630Z,94787.47
2023-03-29T02:50:03.523Z,94795.38
2023-03-29T02:52:39.389Z,94804.81
2023-03-29T02:55:15.072Z,94798.88
2023-03-29T02:58:08.364Z,94802.22
2023-03-29T03:01:06.762Z,94818.44
2023-03-29T03:03:35.789Z,94821.19
2023-03-29T03:06:04.757Z,94816.03
2023-03-29T03:08:33.325Z,94816.66
2023-03-29T03:11:02.012Z,94827.25
2023-03-29T03:13:30.963Z,94832.25
2023-03-29T03:15:59.441Z,94834.19
2023-03-29T03:18:29.398Z,94831.78
2023-03-29T03:21:01.897Z,94839.34
2023-03-29T03:23:30.863Z,94839.34
2023-03-29T03:25:59.419Z,94845.25
2023-03-29T03:28:28.407Z,94848.88
2023-03-29T03:30:56.782Z,94839.63
2023-03-29T03:33:27.006Z,94857.59
2023-03-29T03:36:02.894Z,94844.78
2023-03-29T03:38:31.629Z,94849.13
2023-03-29T03:41:01.458Z,94854.66
2023-03-29T03:43:31.348Z,94853.94
2023-03-29T03:46:00.006Z,94864.19
2023-03-29T03:48:28.705Z,94862.69
2023-03-29T03:50:59.963Z,94866.59
2023-03-29T03:53:53.440Z,94869.16
2023-03-29T03:56:21.944Z,94871.91
2023-03-29T03:58:50.408Z,94872.22
2023-03-29T04:01:19.788Z,94874.69
2023-03-29T04:03:48.452Z,94873.25
2023-03-29T04:06:44.210Z,94873.00
2023-03-29T04:09:12.936Z,94872.56
2023-03-29T04:12:06.768Z,94875.38
2023-03-29T04:14:35.700Z,94879.13
2023-03-29T04:17:04.209Z,94883.41
2023-03-29T04:19:32.712Z,94893.13
2023-03-29T04:22:27.714Z,94893.38
2023-03-29T04:24:56.251Z,94891.50
2023-03-29T04:27:24.713Z,94905.06
2023-03-29T04:29:57.620Z,94904.31
2023-03-29T04:32:51.547Z,94899.63
2023-03-29T04:35:20.250Z,94903.25
2023-03-29T04:37:51.170Z,94912.44
2023-03-29T04:40:20.938Z,94900.94
2023-03-29T04:43:14.677Z,94897.13
2023-03-29T04:45:43.284Z,94895.34
2023-03-29T04:48:11.824Z,94902.81
2023-03-29T04:50:40.323Z,94911.19
2023-03-29T04:53:13.315Z,94910.56
2023-03-29T04:55:41.863Z,94913.94
2023-03-29T04:58:10.367Z,94917.69
2023-03-29T05:00:38.817Z,94918.75
2023-03-29T05:03:08.032Z,94914.94
2023-03-29T05:05:36.534Z,94919.78
2023-03-29T05:08:05.102Z,94918.53
2023-03-29T05:10:34.933Z,94919.53
2023-03-29T05:13:04.131Z,94917.75
2023-03-29T05:15:32.794Z,94919.00
2023-03-29T05:18:01.561Z,94922.78
2023-03-29T05:20:31.469Z,94929.19
2023-03-29T05:22:59.959Z,94925.53
2023-03-29T05:25:28.425Z,94927.53
2023-03-29T05:27:59.721Z,94925.75
2023-03-29T05:30:28.324Z,94939.25
2023-03-29T05:32:56.911Z,94936.84
2023-03-29T05:35:26.352Z,94930.50
2023-03-29T05:38:04.285Z,94939.06
2023-03-29T05:40:33.724Z,94944.59
2023-03-29T05:43:03.977Z,94940.78
2023-03-29T05:45:33.611Z,94943.34
2023-03-29T05:48:03.976Z,94949.53
2023-03-29T05:50:32.631Z,94951.28
2023-03-29T05:53:28.369Z,94948.63
2023-03-29T05:55:57.286Z,94946.66
2023-03-29T05:58:28.527Z,94953.28
2023-03-29T06:00:57.143Z,94955.66
2023-03-29T06:03:27.466Z,94950.34
2023-03-29T06:06:02.435Z,94954.16
2023-03-29T06:08:33.715Z,94943.34
2023-03-29T06:11:27.976Z,94950.41
2023-03-29T06:13:57.903Z,94950.41
2023-03-29T06:16:27.055Z,94954.91
2023-03-29T06:18:55.732Z,94965.53
2023-03-29T06:21:26.587Z,94951.56
2023-03-29T06:23:55.340Z,94960.19
2023-03-29T06:26:24.028Z,94961.06
2023-03-29T06:28:52.771Z,94960.75
2023-03-29T06:31:22.895Z,94956.94
2023-03-29T06:33:51.330Z,94973.53
2023-03-29T06:36:20.310Z,94976.69
2023-03-29T06:38:56.381Z,94970.03
2023-03-29T06:41:24.890Z,94956.72
2023-03-29T06:43:53.595Z,94959.50
2023-03-29T06:46:23.459Z,94975.34
2023-03-29T06:48:53.146Z,94966.56
2023-03-29T06:51:23.305Z,94958.78
2023-03-29T06:53:52.089Z,94965.25
2023-03-29T06:56:20.745Z,94973.25
2023-03-29T06:58:52.653Z,94970.38
2023-03-29T07:01:22.933Z,94977.56
2023-03-29T07:03:51.421Z,94969.34
2023-03-29T07:06:20.576Z,94975.13
2023-03-29T07:08:52.740Z,94954.38
2023-03-29T07:11:31.524Z,94969.53
2023-03-29T07:14:28.622Z,94979.16
2023-03-29T07:16:59.524Z,94969.19
2023-03-29T07:19:30.253Z,94974.84
2023-03-29T07:21:58.816Z,94969.84
2023-03-29T07:24:27.361Z,94971.88
2023-03-29T07:27:04.253Z,94978.50
2023-03-29T07:29:33.471Z,94983.16
2023-03-29T07:32:04.360Z,94986.75
2023-03-29T07:34:32.775Z,94987.31
2023-03-29T07:37:01.227Z,94981.75
2023-03-29T07:39:31.048Z,94980.97
2023-03-29T07:41:59.669Z,94979.66
2023-03-29T07:44:29.564Z,94982.31
2023-03-29T07:47:00.009Z,94985.75
2023-03-29T07:49:29.870Z,94983.16
2023-03-29T07:51:58.472Z,94971.56
2023-03-29T07:54:27.128Z,94968.19
2023-03-29T07:56:55.584Z,94966.19
2023-03-29T07:59:24.165Z,94974.38
2023-03-29T08:01:53.104Z,94962.56
2023-03-29T08:04:21.760Z,94968.53
2023-03-29T08:06:52.411Z,94973.72
2023-03-29T08:09:21.237Z,94950.69
2023-03-29T08:11:50.314Z,94964.13
2023-03-29T08:14:43.686Z,94961.72
2023-03-29T08:17:12.232Z,94952.13
2023-03-29T08:19:40.924Z,94966.53
2023-03-29T08:22:20.926Z,94961.00
2023-03-29T08:24:49.386Z,94949.59
2023-03-29T08:27:17.899Z,94955.19
2023-03-29T08:29:46.650Z,94967.75
2023-03-29T08:32:29.168Z,94964.94
2023-03-29T08:34:57.620Z,94951.94
2023-03-29T08:37:27.517Z,94952.75
2023-03-29T08:39:58.509Z,94951.28
2023-03-29T08:42:56.760Z,94943.72
2023-03-29T08:45:35.436Z,94956.91
2023-03-29T08:48:18.662Z,94944.47
2023-03-29T08:50:52.766Z,94934.00
2023-03-29T08:53:30.315Z,94940.78
2023-03-29T08:56:03.515Z,94944.75
2023-03-29T08:58:58.482Z,94937.56
2023-03-29T09:01:35.021Z,94936.72
2023-03-29T09:04:09.987Z,94932.28
2023-03-29T09:06:41.224Z,94949.72
2023-03-29T09:09:18.549Z,94931.84
2023-03-29T09:12:10.595Z,94931.44
2023-03-29T09:14:53.559Z,94936.53
2023-03-29T09:17:38.935Z,94927.88
2023-03-29T09:20:24.688Z,94930.50
2023-03-29T09:23:23.413Z,94916.63
2023-03-29T09:26:05.332Z,94929.97
2023-03-29T09:29:09.028Z,94912.16
2023-03-29T09:31:43.896Z,94918.69
2023-03-29T09:34:17.993Z,94923.44
2023-03-29T09:36:53.492Z,94932.53
2023-03-29T09:39:23.868Z,94925.13
2023-03-29T09:41:59.799Z,94926.91
2023-03-29T09:44:57.196Z,94934.06
2023-03-29T09:47:31.582Z,94919.91
2023-03-29T09:50:16.651Z,94917.16
2023-03-29T09:52:52.215Z,94915.81
2023-03-29T09:55:27.416Z,94917.81
2023-03-29T09:58:01.561Z,94913.81
2023-03-29T10:00:30.188Z,94920.13
2023-03-29T10:03:00.534Z,94915.22
2023-03-29T10:05:36.780Z,94912.53
2023-03-29T10:08:20.317Z,94912.13
2023-03-29T10:10:49.589Z,94904.03
2023-03-29T10:13:30.718Z,94910.69
2023-03-29T10:16:03.720Z,94895.78
2023-03-29T10:18:33.735Z,94898.97
2023-03-29T10:21:30.538Z,94906.41
2023-03-29T10:24:00.500Z,94897.53
2023-03-29T10:26:34.476Z,94901.31
2023-03-29T10:29:08.403Z,94906.47
2023-03-29T10:31:41.673Z,94901.63
2023-03-29T10:34:16.578Z,94897.19
2023-03-29T10:36:53.606Z,94895.66
2023-03-29T10:39:31.715Z,94887.84
2023-03-29T10:42:02.095Z,94901.25
2023-03-29T10:44:36.141Z,94887.75
2023-03-29T10:47:16.748Z,94877.28
2023-03-29T10:49:48.126Z,94868.00
2023-03-29T10:52:17.863Z,94880.56
2023-03-29T10:54:51.713Z,94879.41
2023-03-29T10:57:55.062Z,94874.28
2023-03-29T11:00:33.450Z,94875.31
2023-03-29T11:03:24.173Z,94871.03
2023-03-29T11:06:00.488Z,94853.91
2023-03-29T11:08:49.862Z,94851.31
2023-03-29T11:12:08.266Z,94862.50
2023-03-29T11:14:59.535Z,94847.53
2023-03-29T11:17:53.247Z,94860.50
2023-03-29T11:20:32.094Z,94870.53
2023-03-29T11:23:18.214Z,94853.53
2023-03-29T11:26:02.476Z,94851.66
2023-03-29T11:28:42.267Z,94855.13
2023-03-29T11:31:25.896Z,94850.59
2023-03-29T11:34:30.506Z,94829.44
2023-03-29T11:37:08.688Z,94832.84
2023-03-29T11:39:53.323Z,94846.28
2023-03-29T11:42:26.778Z,94821.03
2023-03-29T11:44:59.704Z,94821.38
2023-03-29T11:47:33.352Z,94828.22
2023-03-29T11:50:15.887Z,94825.50
2023-03-29T11:52:52.546Z,94827.19
2023-03-29T11:55:26.237Z,94837.75
2023-03-29T11:58:00.197Z,94831.63
2023-03-29T12:00:33.935Z,94821.28
2023-03-29T12:03:13.122Z,94819.72
2023-03-29T12:05:49.560Z,94821.84
2023-03-29T12:08:25.448Z,94835.41
2023-03-29T12:11:15.379Z,94823.56
2023-03-29T12:13:49.209Z,94833.56
2023-03-29T12:17:01.108Z,94834.03
2023-03-29T12:19:39.673Z,94841.28
2023-03-29T12:22:11.629Z,94829.69
2023-03-29T12:24:45.841Z,94834.81
2023-03-29T12:27:26.655Z,94838.22
2023-03-29T12:30:43.519Z,94838.69
2023-03-29T12:33:40.271Z,94833.81
2023-03-29T12:36:48.279Z,94828.09
2023-03-29T12:39:21.618Z,94828.19
2023-03-29T12:41:53.237Z,94826.16
2023-03-29T12:44:25.065Z,94836.97
2023-03-29T12:46:58.199Z,94829.34
2023-03-29T12:49:32.790Z,94817.88
2023-03-29T12:52:06.092Z,94818.69
2023-03-29T12:54:36.053Z,94816.63
2023-03-29T12:57:22.153Z,94811.75
2023-03-29T12:59:52.388Z,94809.13
2023-03-29T13:02:37.644Z,94798.75
2023-03-29T13:05:31.162Z,94804.56
2023-03-29T13:07:59.758Z,94812.06
2023-03-29T13:10:43.736Z,94813.97
2023-03-29T13:13:19.465Z,94815.75
2023-03-29T13:16:16.268Z,94803.97
2023-03-29T13:19:28.703Z,94792.88
2023-03-29T13:22:13.912Z,94815.53
2023-03-29T13:25:11.491Z,94804.16
2023-03-29T13:27:53.540Z,94807.72
2023-03-29T13:30:41.012Z,94820.09
2023-03-29T13:33:33.567Z,94804.34
2023-03-29T13:36:09.004Z,94797.31
2023-03-29T13:38:48.837Z,94799.66
2023-03-29T13:41:34.341Z,94801.34
2023-03-29T13:44:04.200Z,94807.28
2023-03-29T13:46:42.083Z,94801.59
2023-03-29T13:49:22.268Z,94792.88
2023-03-29T13:52:17.088Z,94804.41
2023-03-29T13:55:03.069Z,94807.00
2023-03-29T13:57:39.956Z,94794.81
2023-03-29T14:00:20.369Z,94790.06
2023-03-29T14:03:16.334Z,94791.44
2023-03-29T14:05:51.916Z,94794.59
2023-03-29T14:08:45.933Z,94806.56
2023-03-29T14:11:25.960Z,94805.53
2023-03-29T14:13:56.451Z,94806.00
2023-03-29T14:16:31.648Z,94805.44
2023-03-29T14:19:03.596Z,94792.06
2023-03-29T14:21:35.385Z,94815.84
2023-03-29T14:24:04.544Z,94818.44
2023-03-29T14:26:35.963Z,94814.47
2023-03-29T14:29:05.351Z,94808.91
2023-03-29T14:31:38.588Z,94825.16
2023-03-29T14:34:12.898Z,94814.81
2023-03-29T14:36:43.655Z,94808.31
2023-03-29T14:39:18.413Z,94816.59
2023-03-29T14:41:52.857Z,94816.84
2023-03-29T14:44:31.129Z,94820.97
2023-03-29T14:47:02.982Z,94812.63
2023-03-29T14:49:33.111Z,94822.31
2023-03-29T14:52:01.835Z,94820.47
2023-03-29T14:54:33.395Z,94824.56
2023-03-29T14:57:06.535Z,94825.59
2023-03-29T14:59:39.780Z,94819.34
2023-03-29T15:02:27.162Z,94811.06
2023-03-29T15:05:35.627Z,94813.88
2023-03-29T15:08:07.393Z,94821.72
2023-03-29T15:10:38.800Z,94810.03
2023-03-29T15:13:09.762Z,94824.25
2023-03-29T15:15:40.934Z,94816.84
2023-03-29T15:18:17.703Z,94817.31
2023-03-29T15:20:46.546Z,94832.75
2023-03-29T15:23:25.663Z,94826.25
2023-03-29T15:25:58.451Z,94827.13
2023-03-29T15:28:33.811Z,94829.72
2023-03-29T15:31:08.157Z,94833.91
2023-03-29T15:33:41.821Z,94830.28
2023-03-29T15:36:14.200Z,94839.66
2023-03-29T15:38:45.376Z,94842.22
2023-03-29T15:41:15.514Z,94843.34
2023-03-29T15:43:44.366Z,94844.91
2023-03-29T15:46:14.655Z,94859.72
2023-03-29T15:48:44.612Z,94857.91
2023-03-29T15:51:13.531Z,94850.88
2023-03-29T15:53:43.719Z,94861.38
2023-03-29T15:56:19.479Z,94858.09
2023-03-29T15:58:48.834Z,94863.63
2023-03-29T16:01:33.444Z,94851.94
2023-03-29T16:04:04.007Z,94849.41
2023-03-29T16:06:33.557Z,94852.47
2023-03-29T16:09:02.068Z,94859.06
2023-03-29T16:11:30.957Z,94852.78
2023-03-29T16:13:59.981Z,94860.00
2023-03-29T16:16:28.596Z,94860.25
2023-03-29T16:18:57.116Z,94861.22
2023-03-29T16:21:27.283Z,94856.06
2023-03-29T16:23:55.857Z,94860.94
2023-03-29T16:26:26.214Z,94859.78
2023-03-29T16:28:54.739Z,94855.16
2023-03-29T16:31:49.231Z,94857.81
2023-03-29T16:34:19.305Z,94857.38
2023-03-29T16:36:49.654Z,94865.25
2023-03-29T16:39:19.215Z,94880.03
2023-03-29T16:41:49.089Z,94865.22
2023-03-29T16:44:22.489Z,94876.47
2023-03-29T16:46:53.821Z,94870.69
2023-03-29T16:49:22.564Z,94877.00
2023-03-29T16:51:52.408Z,94876.63
2023-03-29T16:54:20.999Z,94874.28
2023-03-29T16:56:49.556Z,94873.28
2023-03-29T16:59:18.010Z,94878.94
2023-03-29T17:01:47.009Z,94874.19
2023-03-29T17:04:15.729Z,94873.41
2023-03-29T17:06:44.134Z,94872.44
2023-03-29T17:09:14.010Z,94877.03
2023-03-29T17:11:47.462Z,94875.25
2023-03-29T17:14:15.995Z,94880.84
2023-03-29T17:16:44.626Z,94888.88
2023-03-29T17:19:13.378Z,94880.09
2023-03-29T17:21:41.804Z,94885.94
2023-03-29T17:24:11.010Z,94893.97
2023-03-29T17:26:42.168Z,94899.38
2023-03-29T17:29:12.889Z,94897.78
2023-03-29T17:31:47.585Z,94904.41
2023-03-29T17:34:17.366Z,94911.25
2023-03-29T17:36:46.842Z,94911.47
2023-03-29T17:39:15.874Z,94903.88
2023-03-29T17:41:45.785Z,94903.88
2023-03-29T17:44:14.239Z,94905.09
2023-03-29T17:46:42.805Z,94921.31
2023-03-29T17:49:11.304Z,94911.53
2023-03-29T17:51:39.896Z,94911.94
2023-03-29T17:54:08.541Z,94922.75
2023-03-29T17:56:37.004Z,94921.19
2023-03-29T17:59:06.872Z,94920.03
2023-03-29T18:01:38.481Z,94928.50
2023-03-29T18:04:07.700Z,94922.75
2023-03-29T18:06:36.453Z,94921.31
2023-03-29T18:09:05.693Z,94915.19
2023-03-29T18:11:34.177Z,94920.38
2023-03-29T18:14:02.715Z,94925.38
2023-03-29T18:16:32.960Z,94928.00
2023-03-29T18:19:01.683Z,94937.38
2023-03-29T18:21:30.234Z,94929.41
2023-03-29T18:23:58.824Z,94932.00
2023-03-29T18:26:28.538Z,94929.78
2023-03-29T18:28:57.186Z,94934.81
2023-03-29T18:31:26.066Z,94937.00
2023-03-29T18:33:55.875Z,94936.22
2023-03-29T18:36:26.184Z,94935.63
2023-03-29T18:38:55.891Z,94938.22
2023-03-29T18:41:24.935Z,94933.81
2023-03-29T18:43:57.296Z,94927.03
2023-03-29T18:46:25.860Z,94932.00
2023-03-29T18:48:57.415Z,94935.81
2023-03-29T18:51:28.239Z,94925.41
2023-03-29T18:53:56.993Z,94920.22
2023-03-29T18:56:25.686Z,94920.41
2023-03-29T18:58:55.155Z,94926.00
2023-03-29T19:01:23.623Z,94924.19
2023-03-29T19:03:52.186Z,94924.59
2023-03-29T19:06:22.056Z,94922.78
2023-03-29T19:08:50.587Z,94928.78
2023-03-29T19:11:21.719Z,94932.56
2023-03-29T19:13:50.845Z,94934.56
2023-03-29T19:16:19.610Z,94931.56
2023-03-29T19:18:48.128Z,94930.72
2023-03-29T19:21:16.605Z,94929.75
2023-03-29T19:24:11.235Z,94921.00
2023-03-29T19:26:39.856Z,94925.38
2023-03-29T19:29:08.634Z,94927.38
2023-03-29T19:31:37.991Z,94922.41
2023-03-29T19:34:09.546Z,94922.59
2023-03-29T19:36:38.141Z,94909.84
2023-03-29T19:39:07.501Z,94914.41
2023-03-29T19:41:38.189Z,94918.22
2023-03-29T19:44:07.918Z,94922.22
2023-03-29T19:46:36.627Z,94923.41
2023-03-29T19:49:05.780Z,94922.00
2023-03-29T19:51:34.388Z,94920.44
2023-03-29T19:54:02.795Z,94926.81
2023-03-29T19:56:33.193Z,94919.63
2023-03-29T19:59:14.839Z,94928.59
2023-03-29T20:01:50.808Z,94931.19
2023-03-29T20:04:20.571Z,94930.00
2023-03-29T20:06:49.457Z,94931.41
2023-03-29T20:09:17.922Z,94932.78
2023-03-29T20:11:47.724Z,94930.19
2023-03-29T20:14:17.568Z,94928.59
2023-03-29T20:16:46.296Z,94932.03
2023-03-29T20:19:17.618Z,94941.41
2023-03-29T20:21:46.235Z,94933.22
2023-03-29T20:24:15.121Z,94924.03
2023-03-29T20:26:43.633Z,94935.41
2023-03-29T20:29:12.086Z,94928.41
2023-03-29T20:31:42.501Z,94931.63
2023-03-29T20:34:11.584Z,94929.22
2023-03-29T20:36:43.898Z,94929.41
2023-03-29T20:39:12.561Z,94930.63
2023-03-29T20:41:41.000Z,94931.81
2023-03-29T20:44:10.552Z,94921.81
2023-03-29T20:46:46.234Z,94929.81
2023-03-29T20:49:16.143Z,94931.41
2023-03-29T20:51:44.588Z,94926.63
2023-03-29T20:54:13.138Z,94933.03
2023-03-29T20:56:42.556Z,94933.03
2023-03-29T20:59:12.150Z,94932.00
2023-03-29T21:01:41.206Z,94938.59
2023-03-29T21:04:23.527Z,94934.19
2023-03-29T21:06:52.103Z,94934.59
2023-03-29T21:09:23.514Z,94937.78
2023-03-29T21:11:53.157Z,94934.78
2023-03-29T21:14:22.261Z,94927.38
2023-03-29T21:16:51.298Z,94924.59
2023-03-29T21:19:19.851Z,94931.38
2023-03-29T21:21:52.177Z,94928.41
2023-03-29T21:24:21.085Z,94934.59
2023-03-29T21:26:58.482Z,94927.59
2023-03-29T21:29:27.519Z,94935.63
2023-03-29T21:31:56.195Z,94936.78
2023-03-29T21:34:24.871Z,94930.38
2023-03-29T21:36:54.731Z,94927.75
2023-03-29T21:39:23.500Z,94921.94
2023-03-29T21:41:52.065Z,94926.94
2023-03-29T21:44:20.885Z,94916.13
2023-03-29T21:46:49.372Z,94912.13
2023-03-29T21:49:17.879Z,94910.91
2023-03-29T21:51:46.502Z,94913.94
2023-03-29T21:54:16.335Z,94913.91
2023-03-29T21:56:45.917Z,94908.28
2023-03-29T21:59:14.611Z,94907.06
2023-03-29T22:01:43.060Z,94896.91
2023-03-29T22:04:12.313Z,94900.13
2023-03-29T22:06:41.898Z,94900.94
2023-03-29T22:09:10.783Z,94909.34
2023-03-29T22:11:40.733Z,94906.13
2023-03-29T22:14:09.647Z,94911.34
2023-03-29T22:16:38.432Z,94909.94
2023-03-29T22:19:32.213Z,94905.69
2023-03-29T22:22:01.540Z,94906.53
2023-03-29T22:24:30.398Z,94910.09
2023-03-29T22:27:00.293Z,94900.09
2023-03-29T22:29:28.795Z,94901.69
2023-03-29T22:31:57.196Z,94901.66
2023-03-29T22:34:25.755Z,94899.69
2023-03-29T22:36:54.218Z,94907.72
2023-03-29T22:39:22.878Z,94906.28
2023-03-29T22:41:57.168Z,94902.47
2023-03-29T22:44:27.105Z,94901.25
2023-03-29T22:46:55.796Z,94909.06
2023-03-29T22:49:28.471Z,94903.03
2023-03-29T22:51:57.034Z,94905.06
2023-03-29T22:54:25.554Z,94901.03
2023-03-29T22:56:54.053Z,94904.00
2023-03-29T22:59:22.640Z,94908.19
2023-03-29T23:01:52.838Z,94912.22
2023-03-29T23:04:21.475Z,94907.38
2023-03-29T23:06:49.982Z,94903.97
2023-03-29T23:09:18.396Z,94894.38
2023-03-29T23:12:11.944Z,94913.97
2023-03-29T23:14:42.596Z,94907.97
2023-03-29T23:17:13.460Z,94898.38
2023-03-29T23:19:41.902Z,94911.97
2023-03-29T23:22:10.269Z,94902.19
2023-03-29T23:24:38.645Z,94890.56
2023-03-29T23:27:15.451Z,94882.16
2023-03-29T23:29:45.313Z,94894.13
2023-03-29T23:32:16.222Z,94893.38
2023-03-29T23:34:45.164Z,94884.38
2023-03-29T23:37:13.593Z,94879.16
2023-03-29T23:39:42.233Z,94881.78
2023-03-29T23:42:20.063Z,94886.19
2023-03-29T23:44:48.568Z,94890.00
2023-03-29T23:47:18.566Z,94875.97
2023-03-29T23:49:47.811Z,94896.78
2023-03-29T23:52:16.231Z,94894.97
2023-03-29T23:54:44.677Z,94887.16
2023-03-29T23:57:13.180Z,94893.94
2023-03-29T23:59:42.699Z,94896.75
